createdAt,value
2023-05-19T00:01:19.189Z,76.84
2023-05-19T00:03:57.951Z,76.82
2023-05-19T00:06:29.361Z,77.17
2023-05-19T00:09:01.721Z,77.08
2023-05-19T00:11:30.866Z,77.38
2023-05-19T00:14:00.233Z,77.49
2023-05-19T00:16:29.921Z,77.80
2023-05-19T00:19:03.070Z,77.95
2023-05-19T00:21:31.582Z,78.08
2023-05-19T00:23:59.747Z,78.48
2023-05-19T00:26:28.072Z,78.69
2023-05-19T00:29:00.283Z,79.00
2023-05-19T00:31:28.742Z,79.16
2023-05-19T00:33:56.881Z,79.34
2023-05-19T00:36:26.048Z,79.33
2023-05-19T00:38:54.237Z,79.28
2023-05-19T00:41:22.958Z,79.56
2023-05-19T00:43:51.247Z,79.61
2023-05-19T00:46:20.034Z,79.39
2023-05-19T00:48:48.920Z,79.43
2023-05-19T00:51:17.552Z,78.94
2023-05-19T00:53:49.392Z,78.83
2023-05-19T00:56:19.380Z,78.66
2023-05-19T00:58:48.328Z,78.43
2023-05-19T01:01:19.152Z,77.96
2023-05-19T01:03:48.942Z,78.00
2023-05-19T01:06:19.493Z,77.97
2023-05-19T01:08:48.006Z,77.76
2023-05-19T01:11:16.156Z,77.49
2023-05-19T01:13:44.774Z,77.74
2023-05-19T01:16:32.324Z,77.77
2023-05-19T01:19:19.987Z,77.91
2023-05-19T01:22:02.001Z,78.27
2023-05-19T01:24:48.293Z,78.81
2023-05-19T01:27:38.121Z,79.04
2023-05-19T01:30:08.833Z,79.16
2023-05-19T01:32:41.371Z,78.82
2023-05-19T01:35:10.585Z,78.99
2023-05-19T01:37:40.447Z,79.25
2023-05-19T01:40:11.535Z,79.41
2023-05-19T01:42:40.998Z,79.40
2023-05-19T01:45:10.702Z,79.75
2023-05-19T01:47:43.205Z,79.73
2023-05-19T01:50:11.752Z,80.06
2023-05-19T01:52:39.738Z,80.05
2023-05-19T01:55:10.430Z,80.62
2023-05-19T01:58:15.136Z,80.61
2023-05-19T02:00:58.523Z,81.14
2023-05-19T02:04:04.582Z,81.08
2023-05-19T02:06:55.591Z,81.10
2023-05-19T02:09:46.241Z,81.04
2023-05-19T02:12:26.228Z,81.23
2023-05-19T02:15:06.669Z,80.86
2023-05-19T02:17:38.526Z,80.75
2023-05-19T02:20:09.358Z,80.10
2023-05-19T02:22:37.943Z,80.12
2023-05-19T02:25:07.096Z,79.52
2023-05-19T02:27:36.585Z,79.29
2023-05-19T02:30:06.729Z,79.48
2023-05-19T02:32:35.267Z,79.35
2023-05-19T02:35:04.102Z,79.11
2023-05-19T02:37:32.826Z,79.13
2023-05-19T02:40:00.819Z,78.90
2023-05-19T02:42:28.978Z,79.05
2023-05-19T02:44:57.138Z,79.21
2023-05-19T02:47:25.207Z,78.66
2023-05-19T02:49:53.460Z,78.03
2023-05-19T02:52:21.581Z,77.87
2023-05-19T02:54:49.838Z,79.02
2023-05-19T02:57:18.108Z,78.93
2023-05-19T02:59:46.123Z,79.05
2023-05-19T03:02:14.482Z,79.42
2023-05-19T03:04:43.194Z,79.66
2023-05-19T03:07:13.417Z,79.65
2023-05-19T03:09:42.057Z,79.52
2023-05-19T03:12:09.985Z,79.77
2023-05-19T03:14:38.858Z,79.89
2023-05-19T03:17:10.874Z,79.57
2023-05-19T03:19:39.267Z,79.73
2023-05-19T03:22:07.436Z,80.31
2023-05-19T03:24:36.951Z,80.13
2023-05-19T03:27:06.034Z,79.41
2023-05-19T03:29:34.369Z,79.38
2023-05-19T03:32:02.568Z,79.29
2023-05-19T03:34:32.798Z,78.93
2023-05-19T03:37:01.193Z,79.16
2023-05-19T03:39:29.460Z,79.73
2023-05-19T03:41:57.859Z,80.04
2023-05-19T03:44:26.026Z,80.24
2023-05-19T03:46:54.210Z,80.76
2023-05-19T03:49:22.201Z,81.23
2023-05-19T03:52:06.004Z,81.47
2023-05-19T03:54:54.207Z,81.13
2023-05-19T03:57:22.686Z,80.51
2023-05-19T03:59:50.813Z,80.65
2023-05-19T04:02:19.468Z,79.71
2023-05-19T04:04:50.755Z,80.26
2023-05-19T04:07:19.113Z,80.04
2023-05-19T04:09:48.773Z,80.29
2023-05-19T04:12:16.934Z,80.02
2023-05-19T04:14:44.990Z,79.46
2023-05-19T04:17:13.246Z,79.11
2023-05-19T04:19:41.562Z,79.00
2023-05-19T04:22:09.560Z,79.29
2023-05-19T04:24:37.652Z,79.54
2023-05-19T04:27:12.068Z,79.31
2023-05-19T04:29:41.006Z,79.15
2023-05-19T04:32:10.820Z,78.70
2023-05-19T04:34:40.666Z,79.83
2023-05-19T04:37:10.526Z,80.11
2023-05-19T04:39:40.534Z,79.45
2023-05-19T04:42:10.249Z,79.68
2023-05-19T04:44:42.616Z,79.24
2023-05-19T04:47:11.375Z,79.58
2023-05-19T04:49:39.783Z,79.86
2023-05-19T04:52:12.669Z,80.03
2023-05-19T04:54:42.050Z,80.07
2023-05-19T04:57:11.983Z,80.44
2023-05-19T04:59:40.790Z,80.38
2023-05-19T05:02:09.320Z,80.54
2023-05-19T05:04:42.533Z,80.39
2023-05-19T05:07:11.142Z,79.80
2023-05-19T05:09:39.619Z,79.89
2023-05-19T05:12:09.236Z,79.89
2023-05-19T05:14:40.314Z,79.51
2023-05-19T05:17:10.151Z,79.52
2023-05-19T05:19:38.752Z,79.98
2023-05-19T05:22:07.492Z,80.02
2023-05-19T05:24:37.182Z,80.30
2023-05-19T05:27:08.258Z,80.40
2023-05-19T05:29:37.081Z,80.29
2023-05-19T05:32:06.510Z,78.65
2023-05-19T05:34:36.303Z,77.79
2023-05-19T05:37:04.689Z,77.66
2023-05-19T05:39:33.042Z,78.07
2023-05-19T05:42:01.640Z,77.70
2023-05-19T05:44:30.662Z,77.76
2023-05-19T05:46:59.508Z,78.13
2023-05-19T05:49:28.246Z,78.55
2023-05-19T05:52:05.487Z,78.30
2023-05-19T05:54:36.987Z,78.23
2023-05-19T05:57:06.079Z,78.64
2023-05-19T05:59:34.134Z,78.26
2023-05-19T06:02:02.945Z,78.11
2023-05-19T06:04:32.342Z,78.16
2023-05-19T06:07:02.031Z,77.76
2023-05-19T06:09:33.959Z,77.77
2023-05-19T06:12:02.333Z,78.55
2023-05-19T06:14:34.226Z,78.51
2023-05-19T06:17:26.119Z,78.00
2023-05-19T06:19:54.488Z,77.27
2023-05-19T06:22:22.506Z,77.25
2023-05-19T06:24:50.678Z,77.40
2023-05-19T06:27:20.933Z,77.45
2023-05-19T06:29:49.322Z,77.43
2023-05-19T06:32:18.295Z,77.62
2023-05-19T06:34:54.135Z,77.86
2023-05-19T06:37:23.980Z,77.23
2023-05-19T06:39:53.538Z,76.44
2023-05-19T06:42:23.054Z,77.28
2023-05-19T06:44:58.696Z,77.08
2023-05-19T06:47:27.780Z,76.81
2023-05-19T06:49:56.916Z,76.40
2023-05-19T06:52:27.537Z,76.04
2023-05-19T06:54:55.979Z,75.95
2023-05-19T06:57:23.978Z,76.17
2023-05-19T06:59:52.860Z,75.81
2023-05-19T07:02:20.953Z,76.19
2023-05-19T07:04:51.411Z,76.88
2023-05-19T07:07:19.901Z,77.51
2023-05-19T07:09:48.939Z,77.74
2023-05-19T07:12:16.994Z,77.56
2023-05-19T07:14:45.391Z,77.91
2023-05-19T07:17:13.993Z,78.05
2023-05-19T07:19:44.677Z,77.90
2023-05-19T07:22:12.904Z,78.05
2023-05-19T07:24:40.954Z,78.70
2023-05-19T07:27:09.980Z,78.87
2023-05-19T07:29:37.948Z,77.85
2023-05-19T07:32:06.606Z,78.06
2023-05-19T07:34:34.785Z,78.78
2023-05-19T07:37:03.591Z,76.89
2023-05-19T07:39:32.453Z,76.97
2023-05-19T07:42:00.851Z,78.20
2023-05-19T07:44:31.336Z,78.39
2023-05-19T07:46:59.432Z,77.68
2023-05-19T07:49:27.568Z,77.27
2023-05-19T07:51:55.735Z,77.31
2023-05-19T07:54:24.162Z,76.63
2023-05-19T07:56:52.469Z,75.69
2023-05-19T07:59:20.671Z,74.52
2023-05-19T08:01:49.323Z,74.61
2023-05-19T08:04:17.672Z,74.63
2023-05-19T08:06:46.278Z,73.50
2023-05-19T08:09:14.437Z,72.46
2023-05-19T08:11:42.712Z,73.04
2023-05-19T08:14:11.301Z,72.66
2023-05-19T08:16:39.275Z,70.85
2023-05-19T08:19:07.714Z,70.45
2023-05-19T08:21:37.269Z,70.08
2023-05-19T08:24:06.493Z,69.20
2023-05-19T08:26:37.025Z,69.12
2023-05-19T08:29:06.006Z,68.31
2023-05-19T08:31:34.826Z,68.71
2023-05-19T08:34:03.546Z,69.22
2023-05-19T08:36:31.660Z,68.81
2023-05-19T08:38:59.793Z,68.24
2023-05-19T08:41:27.946Z,68.43
2023-05-19T08:43:56.350Z,66.63
2023-05-19T08:46:26.338Z,64.67
2023-05-19T08:49:02.106Z,65.05
2023-05-19T08:51:30.193Z,65.04
2023-05-19T08:54:04.667Z,64.65
2023-05-19T08:56:33.601Z,65.07
2023-05-19T08:59:02.388Z,63.42
2023-05-19T09:01:31.839Z,63.92
2023-05-19T09:04:00.881Z,64.59
2023-05-19T09:06:32.376Z,63.65
2023-05-19T09:09:00.722Z,62.12
2023-05-19T09:11:28.994Z,63.14
2023-05-19T09:13:57.007Z,62.80
2023-05-19T09:16:27.697Z,64.20
2023-05-19T09:18:57.937Z,62.76
2023-05-19T09:21:33.366Z,62.51
2023-05-19T09:24:08.808Z,61.77
2023-05-19T09:26:42.001Z,60.78
2023-05-19T09:29:14.657Z,60.21
2023-05-19T09:31:52.749Z,61.06
2023-05-19T09:34:22.452Z,61.13
2023-05-19T09:36:51.882Z,61.51
2023-05-19T09:39:21.737Z,58.45
2023-05-19T09:41:54.277Z,58.11
2023-05-19T09:44:30.524Z,58.94
2023-05-19T09:46:58.958Z,58.07
2023-05-19T09:49:29.797Z,58.00
2023-05-19T09:52:00.297Z,56.98
2023-05-19T09:54:32.146Z,57.27
2023-05-19T09:57:07.096Z,56.75
2023-05-19T09:59:39.080Z,54.40
2023-05-19T10:02:15.594Z,53.76
2023-05-19T10:04:45.163Z,54.17
2023-05-19T10:07:15.889Z,51.91
2023-05-19T10:09:45.039Z,50.89
2023-05-19T10:12:13.785Z,51.18
2023-05-19T10:14:42.430Z,51.98
2023-05-19T10:17:12.379Z,53.23
2023-05-19T10:19:41.574Z,54.42
2023-05-19T10:22:09.641Z,53.93
2023-05-19T10:24:37.658Z,53.38
2023-05-19T10:27:12.019Z,52.19
2023-05-19T10:29:44.681Z,49.40
2023-05-19T10:32:18.380Z,49.71
2023-05-19T10:35:27.945Z,49.93
2023-05-19T10:38:23.852Z,48.47
2023-05-19T10:41:22.704Z,48.31
2023-05-19T10:43:53.902Z,47.02
2023-05-19T10:46:27.720Z,47.24
2023-05-19T10:48:56.294Z,47.54
2023-05-19T10:51:34.189Z,47.25
2023-05-19T10:54:03.201Z,47.32
2023-05-19T10:56:36.468Z,45.62
2023-05-19T10:59:04.560Z,46.76
2023-05-19T11:01:35.301Z,47.18
2023-05-19T11:04:11.005Z,45.66
2023-05-19T11:06:40.527Z,45.47
2023-05-19T11:09:22.548Z,45.63
2023-05-19T11:11:57.376Z,45.89
2023-05-19T11:14:29.093Z,44.91
2023-05-19T11:16:58.610Z,46.33
2023-05-19T11:19:32.441Z,47.05
2023-05-19T11:22:12.397Z,47.44
2023-05-19T11:24:40.680Z,47.74
2023-05-19T11:27:22.146Z,44.94
2023-05-19T11:29:51.880Z,45.97
2023-05-19T11:32:39.673Z,48.37
2023-05-19T11:35:10.027Z,50.73
2023-05-19T11:37:38.187Z,52.77
2023-05-19T11:40:07.829Z,55.43
2023-05-19T11:42:37.262Z,56.81
2023-05-19T11:45:06.626Z,55.50
2023-05-19T11:47:45.915Z,55.84
2023-05-19T11:50:20.772Z,56.63
2023-05-19T11:52:48.961Z,58.85
2023-05-19T11:55:18.686Z,60.71
2023-05-19T11:58:05.770Z,59.72
2023-05-19T12:00:42.113Z,61.94
2023-05-19T12:03:11.045Z,63.66
2023-05-19T12:05:45.187Z,61.24
2023-05-19T12:08:13.746Z,60.85
2023-05-19T12:10:42.013Z,62.04
2023-05-19T12:13:10.571Z,63.03
2023-05-19T12:15:39.425Z,62.10
2023-05-19T12:18:08.743Z,61.76
2023-05-19T12:20:38.042Z,62.28
2023-05-19T12:23:06.742Z,62.11
2023-05-19T12:25:35.392Z,61.02
2023-05-19T12:28:04.910Z,62.06
2023-05-19T12:30:34.692Z,58.05
2023-05-19T12:33:03.746Z,56.48
2023-05-19T12:35:36.431Z,55.27
2023-05-19T12:38:08.120Z,55.11
2023-05-19T12:40:40.229Z,50.31
2023-05-19T12:43:09.851Z,49.63
2023-05-19T12:45:40.050Z,49.57
2023-05-19T12:48:12.812Z,47.38
2023-05-19T12:50:41.384Z,46.60
2023-05-19T12:53:11.860Z,46.59
2023-05-19T12:55:44.901Z,44.98
2023-05-19T12:58:13.516Z,44.05
2023-05-19T13:00:47.866Z,45.29
2023-05-19T13:03:18.018Z,44.74
2023-05-19T13:05:48.695Z,45.36
2023-05-19T13:08:20.335Z,44.21
2023-05-19T13:10:49.807Z,44.50
2023-05-19T13:13:18.626Z,44.56
2023-05-19T13:15:50.397Z,45.62
2023-05-19T13:18:18.630Z,46.14
2023-05-19T13:20:47.519Z,46.03
2023-05-19T13:23:16.514Z,46.33
2023-05-19T13:25:45.092Z,46.86
2023-05-19T13:28:13.262Z,46.73
2023-05-19T13:30:43.746Z,46.40
2023-05-19T13:33:12.124Z,47.78
2023-05-19T13:35:40.551Z,47.48
2023-05-19T13:38:10.643Z,47.30
2023-05-19T13:40:39.992Z,46.00
2023-05-19T13:43:09.220Z,46.02
2023-05-19T13:45:38.054Z,45.79
2023-05-19T13:48:07.708Z,45.68
2023-05-19T13:50:36.462Z,45.64
2023-05-19T13:53:04.833Z,45.83
2023-05-19T13:55:33.145Z,45.91
2023-05-19T13:58:01.390Z,46.43
2023-05-19T14:00:31.510Z,46.47
2023-05-19T14:03:00.636Z,46.30
2023-05-19T14:05:29.208Z,46.39
2023-05-19T14:07:58.243Z,46.36
2023-05-19T14:10:27.076Z,47.16
2023-05-19T14:13:29.087Z,47.18
2023-05-19T14:15:44.480Z,46.87
2023-05-19T14:18:12.848Z,45.56
2023-05-19T14:20:40.950Z,46.33
2023-05-19T14:23:08.860Z,45.43
2023-05-19T14:25:36.865Z,44.97
2023-05-19T14:28:05.579Z,45.20
2023-05-19T14:30:34.440Z,44.60
2023-05-19T14:33:02.819Z,44.54
2023-05-19T14:35:31.226Z,44.20
2023-05-19T14:37:59.396Z,43.51
2023-05-19T14:40:27.409Z,42.76
2023-05-19T14:42:55.776Z,42.71
2023-05-19T14:45:24.233Z,40.94
2023-05-19T14:47:52.983Z,41.72
2023-05-19T14:50:21.296Z,41.99
2023-05-19T14:52:49.583Z,42.67
2023-05-19T14:55:17.964Z,42.30
2023-05-19T14:57:46.331Z,42.23
2023-05-19T15:00:14.807Z,42.74
2023-05-19T15:02:43.217Z,42.47
2023-05-19T15:05:11.834Z,43.47
2023-05-19T15:07:40.045Z,43.68
2023-05-19T15:10:08.669Z,43.41
2023-05-19T15:12:36.739Z,43.93
2023-05-19T15:15:05.741Z,42.34
2023-05-19T15:17:33.904Z,41.77
2023-05-19T15:20:02.197Z,42.59
2023-05-19T15:22:30.522Z,42.41
2023-05-19T15:24:58.616Z,43.39
2023-05-19T15:27:27.290Z,42.87
2023-05-19T15:29:55.488Z,43.27
2023-05-19T15:32:23.638Z,41.57
2023-05-19T15:34:51.651Z,41.76
2023-05-19T15:37:19.805Z,42.43
2023-05-19T15:39:48.589Z,42.34
2023-05-19T15:42:16.701Z,42.49
2023-05-19T15:44:46.365Z,42.30
2023-05-19T15:47:14.467Z,42.38
2023-05-19T15:49:42.698Z,41.78
2023-05-19T15:52:10.774Z,42.49
2023-05-19T15:54:38.937Z,42.26
2023-05-19T15:57:07.246Z,40.59
2023-05-19T15:59:35.609Z,44.43
2023-05-19T16:02:03.912Z,47.12
2023-05-19T16:04:32.204Z,48.21
2023-05-19T16:07:00.228Z,48.97
2023-05-19T16:09:28.529Z,49.85
2023-05-19T16:11:56.666Z,50.13
2023-05-19T16:14:24.639Z,49.50
2023-05-19T16:16:52.658Z,49.99
2023-05-19T16:19:21.497Z,50.97
2023-05-19T16:21:50.314Z,51.81
2023-05-19T16:24:18.260Z,52.68
2023-05-19T16:26:46.576Z,52.94
2023-05-19T16:29:14.827Z,53.81
2023-05-19T16:31:42.990Z,53.66
2023-05-19T16:34:11.468Z,53.80
2023-05-19T16:36:39.439Z,53.87
2023-05-19T16:39:07.456Z,53.79
2023-05-19T16:41:35.696Z,54.35
2023-05-19T16:44:03.722Z,55.22
2023-05-19T16:46:31.924Z,55.76
2023-05-19T16:49:00.126Z,57.13
2023-05-19T16:51:28.272Z,57.21
2023-05-19T16:53:56.363Z,58.11
2023-05-19T16:56:24.541Z,58.58
2023-05-19T16:58:54.686Z,59.22
2023-05-19T17:01:23.034Z,59.76
2023-05-19T17:03:51.425Z,59.69
2023-05-19T17:06:19.681Z,58.92
2023-05-19T17:08:47.884Z,58.29
2023-05-19T17:11:15.997Z,57.92
2023-05-19T17:13:46.566Z,57.38
2023-05-19T17:16:14.823Z,57.25
2023-05-19T17:18:44.057Z,58.12
2023-05-19T17:21:12.237Z,58.38
2023-05-19T17:23:40.267Z,59.06
2023-05-19T17:26:08.977Z,59.10
2023-05-19T17:28:37.231Z,59.21
2023-05-19T17:31:15.908Z,59.53
2023-05-19T17:33:44.194Z,59.73
2023-05-19T17:36:12.306Z,60.13
2023-05-19T17:38:40.781Z,60.48
2023-05-19T17:41:13.987Z,60.10
2023-05-19T17:43:42.562Z,60.08
2023-05-19T17:46:12.021Z,60.24
2023-05-19T17:48:40.141Z,60.45
2023-05-19T17:51:08.431Z,60.82
2023-05-19T17:53:37.197Z,60.75
2023-05-19T17:56:09.065Z,61.05
2023-05-19T17:58:37.559Z,61.49
2023-05-19T18:01:06.236Z,61.05
2023-05-19T18:03:35.210Z,61.16
2023-05-19T18:06:03.610Z,60.85
2023-05-19T18:08:32.519Z,60.91
2023-05-19T18:11:01.216Z,61.03
2023-05-19T18:13:29.451Z,61.14
2023-05-19T18:15:59.864Z,61.46
2023-05-19T18:18:27.953Z,61.65
2023-05-19T18:20:56.003Z,61.94
2023-05-19T18:23:24.115Z,62.45
2023-05-19T18:25:53.435Z,62.77
2023-05-19T18:28:21.779Z,62.56
2023-05-19T18:31:04.606Z,62.96
2023-05-19T18:33:33.237Z,63.73
2023-05-19T18:36:01.449Z,64.05
2023-05-19T18:38:29.574Z,63.93
2023-05-19T18:40:57.816Z,64.13
2023-05-19T18:43:26.090Z,64.66
2023-05-19T18:45:54.221Z,64.36
2023-05-19T18:48:22.617Z,64.42
2023-05-19T18:50:51.971Z,64.64
2023-05-19T18:53:22.811Z,65.30
2023-05-19T18:55:51.141Z,65.48
2023-05-19T18:58:19.524Z,66.11
2023-05-19T19:00:47.640Z,66.12
2023-05-19T19:03:16.180Z,66.15
2023-05-19T19:05:45.385Z,66.65
2023-05-19T19:08:13.564Z,66.69
2023-05-19T19:10:42.853Z,67.10
2023-05-19T19:13:10.919Z,66.64
2023-05-19T19:15:40.030Z,67.93
2023-05-19T19:18:08.695Z,68.46
2023-05-19T19:20:36.988Z,68.78
2023-05-19T19:23:06.890Z,68.85
2023-05-19T19:25:35.374Z,69.10
2023-05-19T19:28:03.710Z,69.69
2023-05-19T19:30:32.370Z,69.75
2023-05-19T19:33:00.990Z,69.84
2023-05-19T19:35:29.170Z,70.23
2023-05-19T19:37:58.707Z,70.19
2023-05-19T19:40:26.914Z,70.16
2023-05-19T19:42:55.064Z,70.32
2023-05-19T19:45:23.235Z,70.26
2023-05-19T19:47:51.896Z,70.02
2023-05-19T19:50:20.523Z,70.01
2023-05-19T19:52:48.571Z,70.29
2023-05-19T19:55:17.152Z,70.49
2023-05-19T19:57:47.160Z,70.29
2023-05-19T20:00:15.757Z,70.43
2023-05-19T20:03:02.665Z,70.32
2023-05-19T20:05:32.507Z,70.52
2023-05-19T20:08:00.779Z,70.80
2023-05-19T20:10:28.829Z,70.97
2023-05-19T20:12:59.027Z,71.02
2023-05-19T20:15:27.451Z,70.98
2023-05-19T20:17:55.794Z,71.20
2023-05-19T20:20:23.902Z,71.33
2023-05-19T20:22:51.831Z,71.16
2023-05-19T20:25:20.122Z,71.39
2023-05-19T20:27:48.409Z,71.62
2023-05-19T20:30:16.440Z,71.63
2023-05-19T20:32:46.680Z,71.61
2023-05-19T20:35:15.400Z,71.75
2023-05-19T20:37:43.673Z,71.93
2023-05-19T20:40:12.763Z,72.29
2023-05-19T20:42:41.548Z,72.67
2023-05-19T20:45:10.322Z,73.09
2023-05-19T20:47:38.760Z,72.93
2023-05-19T20:50:07.412Z,72.23
2023-05-19T20:52:36.265Z,72.65
2023-05-19T20:55:05.076Z,73.52
2023-05-19T20:57:33.266Z,74.23
2023-05-19T21:00:01.568Z,74.41
2023-05-19T21:02:29.809Z,74.74
2023-05-19T21:04:58.064Z,74.85
2023-05-19T21:07:26.389Z,74.78
2023-05-19T21:09:54.522Z,74.77
2023-05-19T21:12:25.435Z,74.83
2023-05-19T21:14:53.540Z,74.98
2023-05-19T21:17:21.614Z,75.10
2023-05-19T21:19:50.759Z,74.70
2023-05-19T21:22:19.020Z,74.54
2023-05-19T21:24:47.476Z,74.56
2023-05-19T21:27:15.720Z,74.39
2023-05-19T21:29:43.815Z,74.14
2023-05-19T21:32:11.938Z,74.10
2023-05-19T21:34:40.161Z,73.97
2023-05-19T21:37:08.174Z,74.04
2023-05-19T21:39:36.422Z,74.03
2023-05-19T21:42:05.133Z,74.00
2023-05-19T21:44:33.283Z,74.06
2023-05-19T21:47:01.398Z,73.97
2023-05-19T21:49:29.611Z,73.79
2023-05-19T21:51:57.478Z,73.80
2023-05-19T21:54:25.524Z,73.72
2023-05-19T21:56:53.622Z,73.75
2023-05-19T21:59:25.014Z,73.99
2023-05-19T22:01:53.191Z,74.02
2023-05-19T22:04:22.709Z,74.37
2023-05-19T22:06:51.334Z,74.48
2023-05-19T22:09:19.504Z,74.64
2023-05-19T22:11:47.705Z,74.90
2023-05-19T22:14:15.925Z,75.20
2023-05-19T22:16:44.941Z,75.03
2023-05-19T22:19:13.603Z,75.41
2023-05-19T22:21:41.750Z,75.52
2023-05-19T22:24:09.711Z,75.41
2023-05-19T22:26:37.995Z,75.92
2023-05-19T22:29:06.444Z,76.15
2023-05-19T22:31:34.400Z,76.23
2023-05-19T22:34:02.616Z,76.10
2023-05-19T22:36:31.365Z,76.30
2023-05-19T22:38:59.549Z,76.15
2023-05-19T22:41:27.578Z,76.16
2023-05-19T22:43:55.587Z,76.19
2023-05-19T22:46:23.820Z,76.34
2023-05-19T22:48:52.026Z,77.00
2023-05-19T22:51:20.206Z,77.02
2023-05-19T22:53:49.204Z,77.27
2023-05-19T22:56:17.376Z,77.06
2023-05-19T22:58:45.386Z,76.84
2023-05-19T23:01:13.311Z,77.32
2023-05-19T23:03:41.548Z,77.28
2023-05-19T23:06:09.759Z,77.40
2023-05-19T23:08:37.867Z,77.41
2023-05-19T23:11:06.227Z,77.45
2023-05-19T23:13:34.178Z,77.08
2023-05-19T23:16:02.251Z,76.95
2023-05-19T23:18:30.526Z,76.94
2023-05-19T23:20:58.597Z,76.85
2023-05-19T23:23:27.636Z,76.65
2023-05-19T23:25:56.892Z,76.45
2023-05-19T23:28:25.073Z,76.47
2023-05-19T23:30:54.102Z,76.22
2023-05-19T23:33:23.077Z,76.08
2023-05-19T23:35:51.231Z,76.21
2023-05-19T23:38:19.505Z,76.14
2023-05-19T23:40:47.599Z,76.18
2023-05-19T23:43:15.676Z,76.55
2023-05-19T23:45:43.828Z,76.54
2023-05-19T23:48:11.884Z,76.18
2023-05-19T23:50:39.852Z,76.13
2023-05-19T23:53:08.088Z,76.29
2023-05-19T23:55:36.301Z,76.70
2023-05-19T23:58:04.518Z,77.27
